Last 30 Days

Squaw-Red Dog 6200'

Daily Data | America/Los_Angeles
as of 7/18/19 11:15 PM PDT
Date Daily Max Temp (°F) Max Temp Time Daily Min Temp (°F) Min Temp Time Daily Rain (In) New Snow (in) SnowDepth (in) Wind Spd (mph) Daily Max Wind (mph) Max Wind Time Max Wind Dir (°) Max RH (%) Min RH (%) Wet Bulb (°F) WetB Hrs <28F (hrs) Bat Volt Min Day (V)
7/17/19 79.1 1138 44.7 0559 0.00 83.8 14 2.8 17.1 1647 NNW | 339 99 26 54.2 0.0 12.43
7/16/19 74.0 1451 41.9 0613 0.00 83.2 12 3.6 18.4 1226 NNE | 22 88 27 51.0 0.0 12.43
7/15/19 75.9 1424 43.0 0617 0.00 81.0 10 4.4 20.0 1648 N | 349 76 20 48.9 0.0 12.43
7/14/19 76.2 1349 43.4 0600 0.00 87.0 18 5.3 24.8 0930 NNE | 25 84 19 49.4 0.0 12.43
7/13/19 79.1 1436 44.0 0542 0.00 83.1 15 3.9 18.6 1007 N | 10 90 19 51.2 0.0 12.43
7/12/19 83.2 1119 44.6 0603 0.00 83.8 15 3.0 15.8 1553 N | 2 87 24 53.2 0.0 12.43
7/11/19 78.7 1450 43.0 0549 0.00 84.4 14 3.4 16.9 1322 NNE | 27 88 25 51.7 0.0 12.43
7/10/19 75.8 1231 43.7 0606 0.00 79.5 15 4.2 20.7 1613 NNE | 29 90 22 50.6 0.0 12.43
7/9/19 73.8 1601 37.9 0553 0.00 85.4 19 3.3 18.1 1305 NNE | 22 81 20 46.8 0.0 12.43
7/8/19 69.4 1229 39.6 0615 0.00 83.5 16 3.9 26.6 1658 NNE | 32 84 22 45.8 0.0 12.43
7/7/19 69.4 1631 41.7 0554 0.00 86.4 15 3.8 20.0 1644 NNE | 32 92 25 47.4 0.0 12.41
7/6/19 74.6 1143 41.5 0556 0.00 82.7 13 4.1 20.8 1336 N | 9 94 21 49.7 0.0 12.42
7/5/19 77.8 1245 43.5 0613 0.00 80.9 13 2.9 16.4 1616 NNW | 340 98 21 52.2 0.0 12.41
7/4/19 76.5 1419 37.1 0601 0.00 86.4 14 2.9 16.0 1820 NNW | 330 94 21 48.3 0.0 12.41
7/3/19 69.1 1220 38.7 0611 0.00 81.9 11 3.5 17.4 1401 NNE | 28 93 16 46.5 0.0 12.40
7/2/19 69.0 1352 39.6 0517 0.00 85.8 17 6.1 23.3 1512 NNW | 346 79 17 45.2 0.0 12.42
7/1/19 71.2 1111 37.4 0608 0.00 82.3 16 4.8 21.0 1528 NNE | 32 92 16 45.4 0.0 12.41
6/30/19 69.7 1556 43.0 0041 0.00 79.8 14 3.8 19.0 1545 NNE | 13 85 23 46.6 0.0 12.41
6/29/19 68.0 1145 33.2 0550 0.00 84.4 16 3.4 17.4 1117 NNE | 24 95 21 44.2 0.0 12.41
6/28/19 61.8 1150 40.9 2359 0.00 86.3 16 4.1 17.2 1222 NE | 34 83 19 42.7 0.0 12.41
6/27/19 60.1 1353 43.5 2355 0.00 83.6 19 10.3 30.1 1218 NNE | 29 63 23 42.2 0.0 12.38
6/26/19 61.1 1245 37.9 0542 0.00 86.1 19 9.9 31.3 1526 NNE | 26 88 33 43.7 0.0 12.39
6/25/19 67.4 1518 37.4 0526 0.00 84.2 14 5.0 22.4 1717 NNE | 29 91 18 45.4 0.0 12.41
6/24/19 70.6 1338 39.3 0553 0.00 80.4 15 4.3 21.9 1229 NE | 41 91 26 47.9 0.0 12.42
6/23/19 73.8 1115 36.5 0532 0.00 82.7 14 3.1 17.1 1624 NNE | 24 87 16 46.2 0.0 12.43
6/22/19 72.8 1804 34.8 0552 0.00 88.7 18 2.4 13.0 0906 SSE | 164 89 18 42.9 0.0 12.42
6/21/19 73.6 1538 37.2 0602 0.00 83.5 13 2.3 14.2 1141 NNE | 32 94 17 44.4 0.0 12.42
6/20/19 69.5 1311 44.6 0607 0.00 83.0 14 6.6 31.0 0930 N | 2 90 30 50.9 0.0 12.41
6/19/19 77.9 1444 46.6 0606 0.00 85.4 8 4.3 18.0 1457 NNW | 343 94 25 53.6 0.0 12.42
6/18/19 84.2 1450 44.7 0544 0.00 84.3 10 2.8 14.3 1653 ESE | 103 94 20 53.0 0.0 12.42
Max 84.2 - 46.6 - 0.00 88.7 19 10.3 31.3 - - 99 33 54.2 0.0 12.43
Avg - - - - - 83.8 15 4.3 - - - - - 48.0 - -
Min 60.1 - 33.2 - 0.00 79.5 8 2.3 13.0 - - 63 16 42.2 0.0 12.38